sensor_id;sensor_type;location;lat;lon;timestamp;P1;durP1;ratioP1;P2;durP2;ratioP2
84474;SDS011;74699;43.068;0.152;2024-02-15T00:02:35;4.50;;;2.13;;
84474;SDS011;74699;43.068;0.152;2024-02-15T00:05:01;5.88;;;2.20;;
84474;SDS011;74699;43.068;0.152;2024-02-15T00:07:27;4.60;;;2.00;;
84474;SDS011;74699;43.068;0.152;2024-02-15T00:09:53;5.13;;;1.95;;
84474;SDS011;74699;43.068;0.152;2024-02-15T00:12:19;4.95;;;1.98;;
84474;SDS011;74699;43.068;0.152;2024-02-15T00:14:45;5.05;;;2.33;;
84474;SDS011;74699;43.068;0.152;2024-02-15T00:17:11;4.40;;;2.05;;
84474;SDS011;74699;43.068;0.152;2024-02-15T00:19:38;4.55;;;1.63;;
84474;SDS011;74699;43.068;0.152;2024-02-15T00:22:06;5.45;;;1.67;;
84474;SDS011;74699;43.068;0.152;2024-02-15T00:24:32;4.45;;;1.30;;
84474;SDS011;74699;43.068;0.152;2024-02-15T00:26:58;4.25;;;1.50;;
84474;SDS011;74699;43.068;0.152;2024-02-15T00:29:24;4.50;;;1.42;;
84474;SDS011;74699;43.068;0.152;2024-02-15T00:31:53;5.18;;;1.83;;
84474;SDS011;74699;43.068;0.152;2024-02-15T00:34:20;3.72;;;1.52;;
84474;SDS011;74699;43.068;0.152;2024-02-15T00:36:46;3.17;;;1.30;;
84474;SDS011;74699;43.068;0.152;2024-02-15T00:39:12;3.35;;;1.23;;
84474;SDS011;74699;43.068;0.152;2024-02-15T00:41:39;2.75;;;0.90;;
84474;SDS011;74699;43.068;0.152;2024-02-15T00:44:08;3.75;;;1.17;;
84474;SDS011;74699;43.068;0.152;2024-02-15T00:46:35;2.28;;;0.80;;
84474;SDS011;74699;43.068;0.152;2024-02-15T00:49:01;2.35;;;0.73;;
84474;SDS011;74699;43.068;0.152;2024-02-15T00:53:54;2.35;;;0.80;;
84474;SDS011;74699;43.068;0.152;2024-02-15T00:56:21;2.25;;;0.60;;
84474;SDS011;74699;43.068;0.152;2024-02-15T00:58:47;2.10;;;1.25;;
84474;SDS011;74699;43.068;0.152;2024-02-15T01:01:13;2.00;;;0.50;;
84474;SDS011;74699;43.068;0.152;2024-02-15T01:03:40;2.35;;;0.63;;
84474;SDS011;74699;43.068;0.152;2024-02-15T01:06:06;1.45;;;0.47;;
84474;SDS011;74699;43.068;0.152;2024-02-15T01:08:32;2.70;;;0.68;;
84474;SDS011;74699;43.068;0.152;2024-02-15T01:10:58;1.42;;;0.40;;
84474;SDS011;74699;43.068;0.152;2024-02-15T01:13:24;1.90;;;0.40;;
84474;SDS011;74699;43.068;0.152;2024-02-15T01:15:50;2.58;;;0.47;;
84474;SDS011;74699;43.068;0.152;2024-02-15T01:18:16;2.08;;;0.43;;
84474;SDS011;74699;43.068;0.152;2024-02-15T01:20:42;2.15;;;0.50;;
84474;SDS011;74699;43.068;0.152;2024-02-15T01:25:35;1.45;;;0.40;;
84474;SDS011;74699;43.068;0.152;2024-02-15T01:28:02;2.13;;;0.50;;
84474;SDS011;74699;43.068;0.152;2024-02-15T01:30:28;1.58;;;0.30;;
84474;SDS011;74699;43.068;0.152;2024-02-15T01:32:55;1.52;;;0.40;;
84474;SDS011;74699;43.068;0.152;2024-02-15T01:35:21;2.10;;;0.35;;
84474;SDS011;74699;43.068;0.152;2024-02-15T01:37:47;1.63;;;0.55;;
84474;SDS011;74699;43.068;0.152;2024-02-15T01:40:13;0.95;;;0.30;;
84474;SDS011;74699;43.068;0.152;2024-02-15T01:42:39;1.90;;;0.40;;
84474;SDS011;74699;43.068;0.152;2024-02-15T01:45:05;2.45;;;0.60;;
84474;SDS011;74699;43.068;0.152;2024-02-15T01:47:31;1.88;;;0.70;;
84474;SDS011;74699;43.068;0.152;2024-02-15T01:49:57;2.33;;;0.50;;
84474;SDS011;74699;43.068;0.152;2024-02-15T01:52:23;3.58;;;0.70;;
84474;SDS011;74699;43.068;0.152;2024-02-15T01:54:53;2.60;;;0.55;;
84474;SDS011;74699;43.068;0.152;2024-02-15T01:57:19;3.17;;;0.80;;
84474;SDS011;74699;43.068;0.152;2024-02-15T01:59:51;3.85;;;0.60;;
84474;SDS011;74699;43.068;0.152;2024-02-15T02:02:18;3.92;;;0.60;;
84474;SDS011;74699;43.068;0.152;2024-02-15T02:04:45;3.13;;;0.60;;
84474;SDS011;74699;43.068;0.152;2024-02-15T02:07:12;4.30;;;0.98;;
84474;SDS011;74699;43.068;0.152;2024-02-15T02:09:39;3.53;;;0.65;;
84474;SDS011;74699;43.068;0.152;2024-02-15T02:12:05;2.63;;;0.55;;
84474;SDS011;74699;43.068;0.152;2024-02-15T02:14:32;3.65;;;1.00;;
84474;SDS011;74699;43.068;0.152;2024-02-15T02:17:10;1.83;;;0.60;;
84474;SDS011;74699;43.068;0.152;2024-02-15T02:19:36;1.33;;;0.30;;
84474;SDS011;74699;43.068;0.152;2024-02-15T02:22:03;1.27;;;0.20;;
84474;SDS011;74699;43.068;0.152;2024-02-15T02:26:57;0.60;;;0.20;;
84474;SDS011;74699;43.068;0.152;2024-02-15T02:29:23;1.40;;;0.28;;
84474;SDS011;74699;43.068;0.152;2024-02-15T02:31:49;1.30;;;0.30;;
84474;SDS011;74699;43.068;0.152;2024-02-15T02:34:15;1.30;;;0.40;;
84474;SDS011;74699;43.068;0.152;2024-02-15T02:36:43;1.27;;;0.40;;
84474;SDS011;74699;43.068;0.152;2024-02-15T02:39:11;1.30;;;0.35;;
84474;SDS011;74699;43.068;0.152;2024-02-15T02:41:37;1.00;;;0.28;;
84474;SDS011;74699;43.068;0.152;2024-02-15T02:44:03;0.93;;;0.20;;
84474;SDS011;74699;43.068;0.152;2024-02-15T02:46:29;0.45;;;0.20;;
84474;SDS011;74699;43.068;0.152;2024-02-15T02:48:55;0.65;;;0.10;;
84474;SDS011;74699;43.068;0.152;2024-02-15T02:51:21;0.70;;;0.20;;
84474;SDS011;74699;43.068;0.152;2024-02-15T02:53:47;1.90;;;0.30;;
84474;SDS011;74699;43.068;0.152;2024-02-15T02:56:13;2.47;;;0.30;;
84474;SDS011;74699;43.068;0.152;2024-02-15T02:58:40;0.95;;;0.20;;
84474;SDS011;74699;43.068;0.152;2024-02-15T03:01:09;0.60;;;0.20;;
84474;SDS011;74699;43.068;0.152;2024-02-15T03:03:36;1.05;;;0.30;;
84474;SDS011;74699;43.068;0.152;2024-02-15T03:06:03;2.10;;;0.30;;
84474;SDS011;74699;43.068;0.152;2024-02-15T03:08:29;1.33;;;0.20;;
84474;SDS011;74699;43.068;0.152;2024-02-15T03:10:55;0.85;;;0.08;;
84474;SDS011;74699;43.068;0.152;2024-02-15T03:13:22;1.30;;;0.20;;
84474;SDS011;74699;43.068;0.152;2024-02-15T03:15:48;1.02;;;0.28;;
84474;SDS011;74699;43.068;0.152;2024-02-15T03:18:15;0.85;;;0.20;;
84474;SDS011;74699;43.068;0.152;2024-02-15T03:20:41;1.38;;;0.20;;
84474;SDS011;74699;43.068;0.152;2024-02-15T03:23:07;0.77;;;0.20;;
84474;SDS011;74699;43.068;0.152;2024-02-15T03:25:33;1.00;;;0.20;;
84474;SDS011;74699;43.068;0.152;2024-02-15T03:28:00;1.55;;;0.32;;
84474;SDS011;74699;43.068;0.152;2024-02-15T03:30:29;1.05;;;0.22;;
84474;SDS011;74699;43.068;0.152;2024-02-15T03:32:56;0.80;;;0.20;;
84474;SDS011;74699;43.068;0.152;2024-02-15T03:35:23;1.05;;;0.25;;
84474;SDS011;74699;43.068;0.152;2024-02-15T03:37:50;1.52;;;0.30;;
84474;SDS011;74699;43.068;0.152;2024-02-15T03:40:16;1.20;;;0.30;;
84474;SDS011;74699;43.068;0.152;2024-02-15T03:42:43;0.32;;;0.10;;
84474;SDS011;74699;43.068;0.152;2024-02-15T03:45:09;0.60;;;0.20;;
84474;SDS011;74699;43.068;0.152;2024-02-15T03:47:36;1.25;;;0.20;;
84474;SDS011;74699;43.068;0.152;2024-02-15T03:50:06;0.50;;;0.25;;
84474;SDS011;74699;43.068;0.152;2024-02-15T03:52:34;1.15;;;0.28;;
84474;SDS011;74699;43.068;0.152;2024-02-15T03:55:00;1.50;;;0.30;;
84474;SDS011;74699;43.068;0.152;2024-02-15T03:57:27;1.35;;;0.30;;
84474;SDS011;74699;43.068;0.152;2024-02-15T03:59:53;0.85;;;0.20;;
84474;SDS011;74699;43.068;0.152;2024-02-15T04:02:21;0.93;;;0.30;;
84474;SDS011;74699;43.068;0.152;2024-02-15T04:04:48;0.55;;;0.17;;
84474;SDS011;74699;43.068;0.152;2024-02-15T04:07:17;1.33;;;0.20;;
84474;SDS011;74699;43.068;0.152;2024-02-15T04:09:43;0.68;;;0.20;;
84474;SDS011;74699;43.068;0.152;2024-02-15T04:12:10;1.13;;;0.45;;
84474;SDS011;74699;43.068;0.152;2024-02-15T04:14:36;0.73;;;0.20;;
84474;SDS011;74699;43.068;0.152;2024-02-15T04:17:05;0.80;;;0.20;;
84474;SDS011;74699;43.068;0.152;2024-02-15T04:19:32;1.88;;;0.20;;
84474;SDS011;74699;43.068;0.152;2024-02-15T04:21:58;0.88;;;0.22;;
84474;SDS011;74699;43.068;0.152;2024-02-15T04:26:51;0.73;;;0.17;;
84474;SDS011;74699;43.068;0.152;2024-02-15T04:29:18;0.60;;;0.10;;
84474;SDS011;74699;43.068;0.152;2024-02-15T04:31:47;1.15;;;0.17;;
84474;SDS011;74699;43.068;0.152;2024-02-15T04:34:16;0.60;;;0.20;;
84474;SDS011;74699;43.068;0.152;2024-02-15T04:36:46;1.33;;;0.30;;
84474;SDS011;74699;43.068;0.152;2024-02-15T04:39:16;2.55;;;0.50;;
84474;SDS011;74699;43.068;0.152;2024-02-15T04:41:52;1.73;;;0.63;;
84474;SDS011;74699;43.068;0.152;2024-02-15T04:44:18;0.95;;;0.30;;
84474;SDS011;74699;43.068;0.152;2024-02-15T04:46:45;0.85;;;0.30;;
84474;SDS011;74699;43.068;0.152;2024-02-15T04:49:12;0.95;;;0.30;;
84474;SDS011;74699;43.068;0.152;2024-02-15T04:54:06;0.35;;;0.10;;
84474;SDS011;74699;43.068;0.152;2024-02-15T04:56:32;1.73;;;0.10;;
84474;SDS011;74699;43.068;0.152;2024-02-15T04:59:01;0.70;;;0.20;;
84474;SDS011;74699;43.068;0.152;2024-02-15T05:01:27;1.30;;;0.17;;
84474;SDS011;74699;43.068;0.152;2024-02-15T05:03:58;1.08;;;0.22;;
84474;SDS011;74699;43.068;0.152;2024-02-15T05:06:24;1.00;;;0.22;;
84474;SDS011;74699;43.068;0.152;2024-02-15T05:08:54;0.93;;;0.20;;
84474;SDS011;74699;43.068;0.152;2024-02-15T05:11:21;1.08;;;0.47;;
84474;SDS011;74699;43.068;0.152;2024-02-15T05:13:47;1.50;;;0.30;;
84474;SDS011;74699;43.068;0.152;2024-02-15T05:16:17;2.38;;;0.43;;
84474;SDS011;74699;43.068;0.152;2024-02-15T05:18:43;0.52;;;0.20;;
84474;SDS011;74699;43.068;0.152;2024-02-15T05:21:11;1.90;;;0.28;;
84474;SDS011;74699;43.068;0.152;2024-02-15T05:23:38;1.58;;;0.50;;
84474;SDS011;74699;43.068;0.152;2024-02-15T05:26:05;1.83;;;0.40;;
84474;SDS011;74699;43.068;0.152;2024-02-15T05:28:31;2.00;;;0.40;;
84474;SDS011;74699;43.068;0.152;2024-02-15T05:31:13;1.17;;;0.25;;
84474;SDS011;74699;43.068;0.152;2024-02-15T05:33:45;1.05;;;0.30;;
84474;SDS011;74699;43.068;0.152;2024-02-15T05:38:38;1.73;;;0.47;;
84474;SDS011;74699;43.068;0.152;2024-02-15T05:41:05;1.98;;;0.80;;
84474;SDS011;74699;43.068;0.152;2024-02-15T05:45:58;0.93;;;0.30;;
84474;SDS011;74699;43.068;0.152;2024-02-15T05:48:26;0.82;;;0.32;;
84474;SDS011;74699;43.068;0.152;2024-02-15T05:50:53;1.40;;;0.40;;
84474;SDS011;74699;43.068;0.152;2024-02-15T05:53:20;1.40;;;0.40;;
84474;SDS011;74699;43.068;0.152;2024-02-15T05:55:46;0.68;;;0.20;;
84474;SDS011;74699;43.068;0.152;2024-02-15T05:58:15;1.88;;;0.50;;
84474;SDS011;74699;43.068;0.152;2024-02-15T06:00:41;2.33;;;0.93;;
84474;SDS011;74699;43.068;0.152;2024-02-15T06:03:09;0.45;;;0.20;;
84474;SDS011;74699;43.068;0.152;2024-02-15T06:05:36;0.45;;;0.13;;
84474;SDS011;74699;43.068;0.152;2024-02-15T06:08:03;1.15;;;0.20;;
84474;SDS011;74699;43.068;0.152;2024-02-15T06:10:29;1.38;;;0.30;;
84474;SDS011;74699;43.068;0.152;2024-02-15T06:12:58;1.33;;;0.40;;
84474;SDS011;74699;43.068;0.152;2024-02-15T06:15:24;1.35;;;0.30;;
84474;SDS011;74699;43.068;0.152;2024-02-15T06:17:51;1.23;;;0.40;;
84474;SDS011;74699;43.068;0.152;2024-02-15T06:20:18;1.20;;;0.38;;
84474;SDS011;74699;43.068;0.152;2024-02-15T06:22:45;2.20;;;0.38;;
84474;SDS011;74699;43.068;0.152;2024-02-15T06:25:11;1.20;;;0.45;;
84474;SDS011;74699;43.068;0.152;2024-02-15T06:27:38;2.08;;;0.60;;
84474;SDS011;74699;43.068;0.152;2024-02-15T06:30:08;2.80;;;0.50;;
84474;SDS011;74699;43.068;0.152;2024-02-15T06:32:53;2.00;;;0.40;;
84474;SDS011;74699;43.068;0.152;2024-02-15T06:35:38;0.65;;;0.35;;
84474;SDS011;74699;43.068;0.152;2024-02-15T06:38:23;0.85;;;0.30;;
84474;SDS011;74699;43.068;0.152;2024-02-15T06:41:08;1.05;;;0.35;;
84474;SDS011;74699;43.068;0.152;2024-02-15T06:43:34;1.77;;;0.55;;
84474;SDS011;74699;43.068;0.152;2024-02-15T06:46:01;2.53;;;0.40;;
84474;SDS011;74699;43.068;0.152;2024-02-15T06:48:27;2.25;;;0.50;;
84474;SDS011;74699;43.068;0.152;2024-02-15T06:50:53;1.95;;;0.40;;
84474;SDS011;74699;43.068;0.152;2024-02-15T06:53:19;1.80;;;0.50;;
84474;SDS011;74699;43.068;0.152;2024-02-15T06:55:46;1.92;;;1.00;;
84474;SDS011;74699;43.068;0.152;2024-02-15T06:58:15;1.73;;;0.60;;
84474;SDS011;74699;43.068;0.152;2024-02-15T07:00:45;2.17;;;0.52;;
84474;SDS011;74699;43.068;0.152;2024-02-15T07:03:11;2.38;;;0.50;;
84474;SDS011;74699;43.068;0.152;2024-02-15T07:05:37;2.00;;;0.40;;
84474;SDS011;74699;43.068;0.152;2024-02-15T07:08:04;1.58;;;0.50;;
84474;SDS011;74699;43.068;0.152;2024-02-15T07:10:30;3.53;;;0.82;;
84474;SDS011;74699;43.068;0.152;2024-02-15T07:12:56;2.88;;;0.80;;
84474;SDS011;74699;43.068;0.152;2024-02-15T07:15:22;1.83;;;0.65;;
84474;SDS011;74699;43.068;0.152;2024-02-15T07:17:48;2.45;;;0.60;;
84474;SDS011;74699;43.068;0.152;2024-02-15T07:20:19;1.77;;;0.77;;
84474;SDS011;74699;43.068;0.152;2024-02-15T07:22:47;2.65;;;0.85;;
84474;SDS011;74699;43.068;0.152;2024-02-15T07:25:14;1.98;;;0.80;;
84474;SDS011;74699;43.068;0.152;2024-02-15T07:27:40;3.10;;;0.70;;
84474;SDS011;74699;43.068;0.152;2024-02-15T07:30:06;1.33;;;0.40;;
84474;SDS011;74699;43.068;0.152;2024-02-15T07:32:33;2.15;;;0.50;;
84474;SDS011;74699;43.068;0.152;2024-02-15T07:35:00;2.30;;;0.57;;
84474;SDS011;74699;43.068;0.152;2024-02-15T07:37:26;0.88;;;0.30;;
84474;SDS011;74699;43.068;0.152;2024-02-15T07:39:54;1.52;;;0.50;;
84474;SDS011;74699;43.068;0.152;2024-02-15T07:42:20;1.55;;;0.52;;
84474;SDS011;74699;43.068;0.152;2024-02-15T07:44:50;1.48;;;0.38;;
84474;SDS011;74699;43.068;0.152;2024-02-15T07:47:17;1.00;;;0.40;;
84474;SDS011;74699;43.068;0.152;2024-02-15T07:49:46;2.42;;;0.73;;
84474;SDS011;74699;43.068;0.152;2024-02-15T07:52:12;1.55;;;0.60;;
84474;SDS011;74699;43.068;0.152;2024-02-15T07:54:38;1.83;;;0.47;;
84474;SDS011;74699;43.068;0.152;2024-02-15T07:57:04;2.10;;;0.60;;
84474;SDS011;74699;43.068;0.152;2024-02-15T07:59:30;2.63;;;0.45;;
84474;SDS011;74699;43.068;0.152;2024-02-15T08:01:57;1.23;;;0.40;;
84474;SDS011;74699;43.068;0.152;2024-02-15T08:04:23;1.90;;;0.35;;
84474;SDS011;74699;43.068;0.152;2024-02-15T08:06:50;1.65;;;0.50;;
84474;SDS011;74699;43.068;0.152;2024-02-15T08:09:18;1.80;;;0.32;;
84474;SDS011;74699;43.068;0.152;2024-02-15T08:11:47;1.77;;;0.40;;
84474;SDS011;74699;43.068;0.152;2024-02-15T08:14:13;1.63;;;0.50;;
84474;SDS011;74699;43.068;0.152;2024-02-15T08:16:39;1.38;;;0.38;;
84474;SDS011;74699;43.068;0.152;2024-02-15T08:19:06;2.08;;;0.40;;
84474;SDS011;74699;43.068;0.152;2024-02-15T08:21:32;2.60;;;0.50;;
84474;SDS011;74699;43.068;0.152;2024-02-15T08:24:00;3.13;;;0.70;;
84474;SDS011;74699;43.068;0.152;2024-02-15T08:26:33;2.35;;;0.50;;
84474;SDS011;74699;43.068;0.152;2024-02-15T08:29:00;2.25;;;0.50;;
84474;SDS011;74699;43.068;0.152;2024-02-15T08:31:28;1.73;;;0.55;;
84474;SDS011;74699;43.068;0.152;2024-02-15T08:33:56;2.47;;;0.50;;
84474;SDS011;74699;43.068;0.152;2024-02-15T08:36:22;1.70;;;0.40;;
84474;SDS011;74699;43.068;0.152;2024-02-15T08:38:51;1.75;;;0.57;;
84474;SDS011;74699;43.068;0.152;2024-02-15T08:41:19;2.97;;;0.60;;
84474;SDS011;74699;43.068;0.152;2024-02-15T08:43:52;1.77;;;0.80;;
84474;SDS011;74699;43.068;0.152;2024-02-15T08:46:18;2.20;;;0.77;;
84474;SDS011;74699;43.068;0.152;2024-02-15T08:48:45;2.75;;;0.70;;
84474;SDS011;74699;43.068;0.152;2024-02-15T08:53:37;2.17;;;0.65;;
84474;SDS011;74699;43.068;0.152;2024-02-15T08:56:03;1.70;;;0.73;;
84474;SDS011;74699;43.068;0.152;2024-02-15T08:58:30;2.20;;;0.40;;
84474;SDS011;74699;43.068;0.152;2024-02-15T09:00:57;1.50;;;0.35;;
84474;SDS011;74699;43.068;0.152;2024-02-15T09:03:23;2.10;;;0.50;;
84474;SDS011;74699;43.068;0.152;2024-02-15T09:05:49;2.80;;;0.60;;
84474;SDS011;74699;43.068;0.152;2024-02-15T09:08:15;2.05;;;0.40;;
84474;SDS011;74699;43.068;0.152;2024-02-15T09:10:45;1.60;;;0.43;;
84474;SDS011;74699;43.068;0.152;2024-02-15T09:13:11;2.58;;;0.50;;
84474;SDS011;74699;43.068;0.152;2024-02-15T09:15:37;2.00;;;0.60;;
84474;SDS011;74699;43.068;0.152;2024-02-15T09:18:04;2.88;;;0.60;;
84474;SDS011;74699;43.068;0.152;2024-02-15T09:20:30;2.30;;;0.70;;
84474;SDS011;74699;43.068;0.152;2024-02-15T09:22:57;2.50;;;0.60;;
84474;SDS011;74699;43.068;0.152;2024-02-15T09:25:23;2.72;;;0.43;;
84474;SDS011;74699;43.068;0.152;2024-02-15T09:27:49;2.85;;;0.60;;
84474;SDS011;74699;43.068;0.152;2024-02-15T09:30:16;3.65;;;0.60;;
84474;SDS011;74699;43.068;0.152;2024-02-15T09:32:43;1.92;;;0.82;;
84474;SDS011;74699;43.068;0.152;2024-02-15T09:35:09;1.45;;;0.55;;
84474;SDS011;74699;43.068;0.152;2024-02-15T09:37:42;1.90;;;0.65;;
84474;SDS011;74699;43.068;0.152;2024-02-15T09:40:09;2.72;;;0.95;;
84474;SDS011;74699;43.068;0.152;2024-02-15T09:42:37;1.80;;;0.57;;
84474;SDS011;74699;43.068;0.152;2024-02-15T09:45:05;1.10;;;0.30;;
84474;SDS011;74699;43.068;0.152;2024-02-15T09:47:34;1.88;;;0.35;;
84474;SDS011;74699;43.068;0.152;2024-02-15T09:50:08;2.38;;;0.50;;
84474;SDS011;74699;43.068;0.152;2024-02-15T09:52:36;1.33;;;0.30;;
84474;SDS011;74699;43.068;0.152;2024-02-15T09:55:04;2.28;;;0.55;;
84474;SDS011;74699;43.068;0.152;2024-02-15T09:57:31;1.60;;;0.50;;
84474;SDS011;74699;43.068;0.152;2024-02-15T09:59:58;1.33;;;0.30;;
84474;SDS011;74699;43.068;0.152;2024-02-15T10:02:33;1.92;;;0.60;;
84474;SDS011;74699;43.068;0.152;2024-02-15T10:05:01;2.05;;;0.43;;
84474;SDS011;74699;43.068;0.152;2024-02-15T10:07:27;2.00;;;0.40;;
84474;SDS011;74699;43.068;0.152;2024-02-15T10:09:54;1.75;;;0.38;;
84474;SDS011;74699;43.068;0.152;2024-02-15T10:12:20;1.30;;;0.40;;
84474;SDS011;74699;43.068;0.152;2024-02-15T10:14:50;2.42;;;0.38;;
84474;SDS011;74699;43.068;0.152;2024-02-15T10:17:18;1.20;;;0.50;;
84474;SDS011;74699;43.068;0.152;2024-02-15T10:19:44;3.08;;;0.47;;
84474;SDS011;74699;43.068;0.152;2024-02-15T10:22:12;1.45;;;0.47;;
84474;SDS011;74699;43.068;0.152;2024-02-15T10:24:40;3.05;;;0.40;;
84474;SDS011;74699;43.068;0.152;2024-02-15T10:27:06;1.55;;;0.40;;
84474;SDS011;74699;43.068;0.152;2024-02-15T10:29:33;1.85;;;0.55;;
84474;SDS011;74699;43.068;0.152;2024-02-15T10:31:59;2.00;;;0.57;;
84474;SDS011;74699;43.068;0.152;2024-02-15T10:34:26;2.30;;;0.70;;
84474;SDS011;74699;43.068;0.152;2024-02-15T10:37:16;1.92;;;0.60;;
84474;SDS011;74699;43.068;0.152;2024-02-15T10:39:41;2.45;;;0.52;;
84474;SDS011;74699;43.068;0.152;2024-02-15T10:42:08;2.10;;;0.55;;
84474;SDS011;74699;43.068;0.152;2024-02-15T10:44:37;4.25;;;0.60;;
84474;SDS011;74699;43.068;0.152;2024-02-15T10:47:07;3.20;;;0.98;;
84474;SDS011;74699;43.068;0.152;2024-02-15T10:49:34;0.93;;;0.32;;
84474;SDS011;74699;43.068;0.152;2024-02-15T10:52:03;3.47;;;0.60;;
84474;SDS011;74699;43.068;0.152;2024-02-15T10:56:57;3.47;;;1.00;;
84474;SDS011;74699;43.068;0.152;2024-02-15T10:59:28;2.33;;;0.70;;
84474;SDS011;74699;43.068;0.152;2024-02-15T11:01:58;2.78;;;1.10;;
84474;SDS011;74699;43.068;0.152;2024-02-15T11:04:25;6.90;;;1.10;;
84474;SDS011;74699;43.068;0.152;2024-02-15T11:06:58;5.30;;;1.33;;
84474;SDS011;74699;43.068;0.152;2024-02-15T11:09:26;3.47;;;1.20;;
84474;SDS011;74699;43.068;0.152;2024-02-15T11:11:54;5.38;;;1.13;;
84474;SDS011;74699;43.068;0.152;2024-02-15T11:16:49;5.57;;;2.25;;
84474;SDS011;74699;43.068;0.152;2024-02-15T11:22:07;6.80;;;2.63;;
84474;SDS011;74699;43.068;0.152;2024-02-15T11:24:35;9.30;;;3.42;;
84474;SDS011;74699;43.068;0.152;2024-02-15T11:27:03;4.72;;;1.90;;
84474;SDS011;74699;43.068;0.152;2024-02-15T11:35:02;7.85;;;3.63;;
84474;SDS011;74699;43.068;0.152;2024-02-15T11:40:18;2.88;;;0.60;;
84474;SDS011;74699;43.068;0.152;2024-02-15T11:42:44;4.07;;;1.13;;
84474;SDS011;74699;43.068;0.152;2024-02-15T11:45:11;5.85;;;0.98;;
84474;SDS011;74699;43.068;0.152;2024-02-15T11:47:38;5.20;;;1.00;;
84474;SDS011;74699;43.068;0.152;2024-02-15T11:50:08;6.40;;;2.00;;
84474;SDS011;74699;43.068;0.152;2024-02-15T11:52:40;8.18;;;2.45;;
84474;SDS011;74699;43.068;0.152;2024-02-15T11:55:07;8.07;;;2.58;;
84474;SDS011;74699;43.068;0.152;2024-02-15T11:57:37;8.25;;;1.90;;
84474;SDS011;74699;43.068;0.152;2024-02-15T12:00:25;6.28;;;2.03;;
84474;SDS011;74699;43.068;0.152;2024-02-15T12:03:10;7.35;;;1.52;;
84474;SDS011;74699;43.068;0.152;2024-02-15T12:05:55;7.82;;;2.10;;
84474;SDS011;74699;43.068;0.152;2024-02-15T12:08:40;8.45;;;2.10;;
84474;SDS011;74699;43.068;0.152;2024-02-15T12:11:27;6.15;;;1.10;;
84474;SDS011;74699;43.068;0.152;2024-02-15T12:14:12;6.35;;;1.50;;
84474;SDS011;74699;43.068;0.152;2024-02-15T12:17:04;5.68;;;1.40;;
84474;SDS011;74699;43.068;0.152;2024-02-15T12:19:50;5.22;;;1.27;;
84474;SDS011;74699;43.068;0.152;2024-02-15T12:22:20;4.32;;;1.45;;
84474;SDS011;74699;43.068;0.152;2024-02-15T12:25:00;4.55;;;1.40;;
84474;SDS011;74699;43.068;0.152;2024-02-15T12:27:26;5.30;;;1.42;;
84474;SDS011;74699;43.068;0.152;2024-02-15T12:30:01;3.00;;;1.08;;
84474;SDS011;74699;43.068;0.152;2024-02-15T12:32:30;2.50;;;1.00;;
84474;SDS011;74699;43.068;0.152;2024-02-15T12:35:09;3.35;;;1.13;;
84474;SDS011;74699;43.068;0.152;2024-02-15T12:37:42;2.92;;;0.90;;
84474;SDS011;74699;43.068;0.152;2024-02-15T12:42:38;3.53;;;1.05;;
84474;SDS011;74699;43.068;0.152;2024-02-15T12:45:04;4.47;;;1.30;;
84474;SDS011;74699;43.068;0.152;2024-02-15T12:47:32;2.95;;;1.05;;
84474;SDS011;74699;43.068;0.152;2024-02-15T12:50:00;3.63;;;1.20;;
84474;SDS011;74699;43.068;0.152;2024-02-15T12:52:38;3.40;;;1.33;;
84474;SDS011;74699;43.068;0.152;2024-02-15T12:55:11;5.13;;;1.60;;
84474;SDS011;74699;43.068;0.152;2024-02-15T12:57:38;4.40;;;1.70;;
84474;SDS011;74699;43.068;0.152;2024-02-15T13:00:11;4.55;;;1.75;;
84474;SDS011;74699;43.068;0.152;2024-02-15T13:02:49;8.55;;;2.08;;
84474;SDS011;74699;43.068;0.152;2024-02-15T13:05:19;4.20;;;1.98;;
84474;SDS011;74699;43.068;0.152;2024-02-15T13:07:47;4.78;;;1.80;;
84474;SDS011;74699;43.068;0.152;2024-02-15T13:10:13;4.63;;;0.98;;
84474;SDS011;74699;43.068;0.152;2024-02-15T13:12:42;4.93;;;1.33;;
84474;SDS011;74699;43.068;0.152;2024-02-15T13:15:10;4.45;;;1.20;;
84474;SDS011;74699;43.068;0.152;2024-02-15T13:17:49;4.38;;;1.50;;
84474;SDS011;74699;43.068;0.152;2024-02-15T13:20:18;3.22;;;1.50;;
84474;SDS011;74699;43.068;0.152;2024-02-15T13:23:06;3.90;;;1.50;;
84474;SDS011;74699;43.068;0.152;2024-02-15T13:25:47;5.82;;;1.45;;
84474;SDS011;74699;43.068;0.152;2024-02-15T13:28:14;4.28;;;1.52;;
84474;SDS011;74699;43.068;0.152;2024-02-15T13:30:40;4.28;;;1.85;;
84474;SDS011;74699;43.068;0.152;2024-02-15T13:33:08;3.90;;;1.70;;
84474;SDS011;74699;43.068;0.152;2024-02-15T13:35:35;6.78;;;2.03;;
84474;SDS011;74699;43.068;0.152;2024-02-15T13:38:01;4.45;;;1.50;;
84474;SDS011;74699;43.068;0.152;2024-02-15T13:40:27;4.15;;;1.50;;
84474;SDS011;74699;43.068;0.152;2024-02-15T13:42:55;5.22;;;1.70;;
84474;SDS011;74699;43.068;0.152;2024-02-15T13:45:24;4.35;;;1.70;;
84474;SDS011;74699;43.068;0.152;2024-02-15T13:47:55;3.88;;;1.75;;
84474;SDS011;74699;43.068;0.152;2024-02-15T13:50:21;5.93;;;2.47;;
84474;SDS011;74699;43.068;0.152;2024-02-15T13:52:48;6.03;;;2.90;;
84474;SDS011;74699;43.068;0.152;2024-02-15T13:55:15;5.13;;;2.78;;
84474;SDS011;74699;43.068;0.152;2024-02-15T13:57:42;7.00;;;2.72;;
84474;SDS011;74699;43.068;0.152;2024-02-15T14:00:09;6.20;;;2.78;;
84474;SDS011;74699;43.068;0.152;2024-02-15T14:02:42;6.65;;;2.53;;
84474;SDS011;74699;43.068;0.152;2024-02-15T14:05:09;8.15;;;3.05;;
84474;SDS011;74699;43.068;0.152;2024-02-15T14:07:37;11.05;;;7.93;;
84474;SDS011;74699;43.068;0.152;2024-02-15T14:10:04;16.23;;;14.52;;
84474;SDS011;74699;43.068;0.152;2024-02-15T14:12:30;22.08;;;19.85;;
84474;SDS011;74699;43.068;0.152;2024-02-15T14:14:56;22.15;;;19.75;;
84474;SDS011;74699;43.068;0.152;2024-02-15T14:17:22;14.13;;;12.35;;
84474;SDS011;74699;43.068;0.152;2024-02-15T14:19:49;11.52;;;8.77;;
84474;SDS011;74699;43.068;0.152;2024-02-15T14:24:44;12.55;;;11.20;;
84474;SDS011;74699;43.068;0.152;2024-02-15T14:27:10;9.00;;;7.25;;
84474;SDS011;74699;43.068;0.152;2024-02-15T14:29:37;12.70;;;6.40;;
84474;SDS011;74699;43.068;0.152;2024-02-15T14:32:10;10.18;;;5.70;;
84474;SDS011;74699;43.068;0.152;2024-02-15T14:34:55;7.90;;;6.03;;
84474;SDS011;74699;43.068;0.152;2024-02-15T14:37:21;14.43;;;12.93;;
84474;SDS011;74699;43.068;0.152;2024-02-15T14:39:49;18.55;;;16.70;;
84474;SDS011;74699;43.068;0.152;2024-02-15T14:42:15;25.48;;;23.00;;
84474;SDS011;74699;43.068;0.152;2024-02-15T14:44:41;30.17;;;27.40;;
84474;SDS011;74699;43.068;0.152;2024-02-15T14:47:08;26.73;;;24.13;;
84474;SDS011;74699;43.068;0.152;2024-02-15T14:49:34;20.67;;;18.25;;
84474;SDS011;74699;43.068;0.152;2024-02-15T14:52:00;22.00;;;19.77;;
84474;SDS011;74699;43.068;0.152;2024-02-15T14:54:27;29.95;;;26.90;;
84474;SDS011;74699;43.068;0.152;2024-02-15T14:56:53;31.35;;;28.55;;
84474;SDS011;74699;43.068;0.152;2024-02-15T14:59:19;23.98;;;21.67;;
84474;SDS011;74699;43.068;0.152;2024-02-15T15:01:45;26.67;;;24.00;;
84474;SDS011;74699;43.068;0.152;2024-02-15T15:04:11;20.02;;;18.25;;
84474;SDS011;74699;43.068;0.152;2024-02-15T15:06:38;17.92;;;16.23;;
84474;SDS011;74699;43.068;0.152;2024-02-15T15:12:24;28.70;;;24.67;;
84474;SDS011;74699;43.068;0.152;2024-02-15T15:15:04;44.03;;;39.42;;
84474;SDS011;74699;43.068;0.152;2024-02-15T15:17:32;42.75;;;38.05;;
84474;SDS011;74699;43.068;0.152;2024-02-15T15:19:59;43.50;;;37.05;;
84474;SDS011;74699;43.068;0.152;2024-02-15T15:24:51;44.83;;;36.40;;
84474;SDS011;74699;43.068;0.152;2024-02-15T15:27:17;43.08;;;37.15;;
84474;SDS011;74699;43.068;0.152;2024-02-15T15:29:43;40.25;;;36.13;;
84474;SDS011;74699;43.068;0.152;2024-02-15T15:32:09;23.73;;;18.52;;
84474;SDS011;74699;43.068;0.152;2024-02-15T15:34:35;25.92;;;22.50;;
84474;SDS011;74699;43.068;0.152;2024-02-15T15:37:01;19.95;;;14.45;;
84474;SDS011;74699;43.068;0.152;2024-02-15T15:39:27;25.60;;;19.75;;